Woody Point, Canada
Current Conditions -  °F | °C
As of 9:00 PM on Friday 24 Oct 2014 (Local Time) from CYDF Reporting Station
Light Rain Light Rain  
Wind Chill:   Ceiling: 1500
Heat Index:   Visibility: 7mi
Dew Point:   Wind: 21mph
Humidity: 93%   Direction: 40°NE
Pressure: 29.76"   Gusts: NA
Location:  49.5°N, 57.93°W
Report Text: CYDF 242300Z 04018KT 7SM -RA SCT007 BKN015 OVC029 05/04 A2976 RMK SF3SC2SC3 SLP077
Loading
Personal Weather Stations






























Interactive Weather Map
Tropical Storm Tracking
New forecast layout! Learn more

10-Day Weather Forecast

Advertisements
Track Severe Weather on mobile